Time;durP1;ratioP1;P1;durP2;ratioP2;P2;SDS_P1;SDS_P2;PMS_P1;PMS_P2;Temp;Humidity;BMP_temperature;BMP_pressure;BME280_temperature;BME280_humidity;BME280_pressure;Samples;Min_cycle;Max_cycle;Signal;HPM_P1;HPM_P2
2022/03/02 00:00:54;;;;;;;20.77;16.23;;;0.40;99.90;;;1.05;94.15;-19762.72;5094415;28;20291;-55
2022/03/02 00:03:22;;;;;;;22.67;16.57;;;0.40;99.90;;;0.88;95.60;-19756.91;5093648;28;20235;-55
2022/03/02 00:05:50;;;;;;;20.70;16.80;;;0.30;99.90;;;0.91;97.07;-19757.78;5093944;28;20316;-54
2022/03/02 00:08:19;;;;;;;22.73;16.00;;;0.30;99.90;;;0.99;96.50;-19760.50;5093495;28;20306;-56
2022/03/02 00:10:47;;;;;;;23.33;16.63;;;0.30;99.90;;;0.88;98.20;-19756.91;5093733;28;20256;-57
2022/03/02 00:13:15;;;;;;;23.23;16.70;;;0.30;99.90;;;0.77;99.91;-19752.97;5093619;28;20644;-57
2022/03/02 00:15:44;;;;;;;23.00;16.00;;;0.30;99.90;;;0.73;100.00;-19751.63;5093777;28;20199;-55
2022/03/02 00:18:12;;;;;;;20.40;16.37;;;0.20;99.90;;;0.67;100.00;-19749.75;5093557;28;20687;-59
2022/03/02 00:20:41;;;;;;;25.67;17.07;;;0.10;99.90;;;0.72;100.00;-19751.44;5093441;28;20229;-57
2022/03/02 00:23:09;;;;;;;23.00;16.90;;;0.10;99.90;;;0.73;100.00;-19751.63;5093148;28;20228;-55
2022/03/02 00:25:37;;;;;;;24.03;17.00;;;0.10;99.90;;;0.74;100.00;-19751.97;5093173;28;20307;-56
2022/03/02 00:28:05;;;;;;;21.80;16.60;;;0.10;99.90;;;0.79;100.00;-19753.66;5093458;28;20290;-57
2022/03/02 00:30:34;;;;;;;23.73;17.67;;;0.10;99.90;;;0.83;100.00;-19755.03;5093783;28;20287;-59
2022/03/02 00:33:04;;;;;;;23.37;16.63;;;0.10;99.90;;;0.75;100.00;-19752.47;5093394;28;20500;-58
2022/03/02 00:35:32;;;;;;;24.13;17.07;;;0.10;99.90;;;0.65;100.00;-19749.06;5092836;28;20228;-53
2022/03/02 00:38:00;;;;;;;21.23;16.70;;;0.10;99.90;;;0.72;100.00;-19751.28;5092907;28;20457;-56
2022/03/02 00:40:28;;;;;;;22.77;16.03;;;0.10;99.90;;;0.90;100.00;-19757.44;5092699;28;20769;-59
2022/03/02 00:42:56;;;;;;;22.83;16.17;;;0.10;99.90;;;0.77;100.00;-19753.16;5093440;28;20215;-56
2022/03/02 00:45:25;;;;;;;25.23;16.90;;;0.10;99.90;;;0.87;99.11;-19756.56;5093242;28;20223;-56
2022/03/02 00:47:54;;;;;;;21.23;15.90;;;0.20;99.90;;;0.81;99.33;-19754.34;5093061;28;20706;-57
2022/03/02 00:50:24;;;;;;;23.73;15.70;;;0.20;99.90;;;0.70;99.86;-19750.59;5092830;28;20227;-56
2022/03/02 00:52:52;;;;;;;20.87;15.10;;;0.10;99.90;;;0.73;100.00;-19751.63;5093099;28;20766;-55
2022/03/02 00:55:20;;;;;;;24.20;16.53;;;0.10;99.90;;;0.81;99.80;-19754.34;5092721;28;20237;-57
2022/03/02 00:57:49;;;;;;;19.70;15.73;;;0.10;99.90;;;0.80;99.51;-19754.19;5109235;28;20220;-57
2022/03/02 01:00:18;;;;;;;21.20;15.30;;;0.10;99.90;;;0.61;99.99;-19747.69;5112961;28;20702;-56
2022/03/02 01:02:47;;;;;;;21.80;16.23;;;0.10;99.90;;;0.57;100.00;-19746.31;5112876;28;20247;-55
2022/03/02 01:05:16;;;;;;;20.80;16.67;;;0.00;99.90;;;0.56;100.00;-19745.97;5096581;28;20233;-55
2022/03/02 01:07:45;;;;;;;21.90;14.97;;;0.00;99.90;;;0.84;100.00;-19755.56;5092772;28;20236;-54
2022/03/02 01:10:15;;;;;;;23.77;17.23;;;0.00;99.90;;;0.95;98.74;-19759.13;5092462;28;20199;-58
2022/03/02 01:12:43;;;;;;;21.83;15.47;;;0.10;99.90;;;1.01;98.00;-19761.19;5093604;28;20203;-56
2022/03/02 01:15:13;;;;;;;22.63;16.10;;;0.10;99.90;;;0.80;98.68;-19754.19;5091986;28;20723;-56
2022/03/02 01:17:43;;;;;;;25.17;16.47;;;0.10;99.90;;;0.65;100.00;-19749.06;5092185;28;20234;-55
2022/03/02 01:20:13;;;;;;;21.87;15.77;;;0.10;99.90;;;0.56;100.00;-19745.97;5092174;28;20231;-58
2022/03/02 01:22:41;;;;;;;23.80;16.37;;;0.00;99.90;;;0.77;100.00;-19752.97;5092264;28;20708;-57
2022/03/02 01:25:12;;;;;;;23.03;15.90;;;0.00;99.90;;;0.74;100.00;-19752.13;5092051;28;20660;-56
2022/03/02 01:27:40;;;;;;;23.67;15.43;;;0.10;99.90;;;0.67;100.00;-19749.75;5092449;28;20184;-54
2022/03/02 01:30:10;;;;;;;22.73;16.60;;;0.10;99.90;;;0.87;100.00;-19756.56;5092058;28;20231;-57
2022/03/02 01:32:38;;;;;;;20.47;15.60;;;0.10;99.90;;;0.94;100.00;-19758.78;5092623;28;20252;-56
2022/03/02 01:35:08;;;;;;;21.33;16.10;;;0.20;99.90;;;1.08;100.00;-19763.59;5090605;28;20724;-57
2022/03/02 01:37:36;;;;;;;22.93;17.20;;;0.20;99.90;;;1.05;100.00;-19762.72;5091861;28;20310;-58
2022/03/02 01:40:05;;;;;;;22.20;15.77;;;0.30;99.90;;;1.05;100.00;-19762.56;5092312;28;20208;-56
2022/03/02 01:42:35;;;;;;;22.47;16.53;;;0.30;99.90;;;0.97;100.00;-19759.81;5092289;28;20253;-57
2022/03/02 01:45:04;;;;;;;22.17;16.33;;;0.30;99.90;;;1.02;100.00;-19761.53;5091726;28;20227;-57
2022/03/02 01:47:32;;;;;;;22.53;15.73;;;0.30;99.90;;;1.10;100.00;-19764.25;5091773;28;20219;-57
2022/03/02 01:50:01;;;;;;;20.13;15.73;;;0.40;99.90;;;1.20;100.00;-19767.69;5092007;28;20258;-55
2022/03/02 01:52:30;;;;;;;22.60;16.40;;;0.40;99.90;;;1.14;100.00;-19765.81;5092041;28;20244;-55
2022/03/02 01:54:58;;;;;;;22.63;15.93;;;0.40;99.90;;;1.12;100.00;-19765.13;5092426;28;20199;-58
2022/03/02 01:57:28;;;;;;;19.43;15.53;;;0.40;99.90;;;1.06;100.00;-19763.06;5091299;28;20672;-56
2022/03/02 01:59:57;;;;;;;21.37;15.40;;;0.40;99.90;;;1.04;100.00;-19762.38;5091318;28;20315;-58
2022/03/02 02:02:25;;;;;;;22.07;16.13;;;0.40;99.90;;;1.16;100.00;-19766.50;5091334;28;20318;-60
2022/03/02 02:04:54;;;;;;;21.67;16.50;;;0.50;99.90;;;1.30;99.30;-19770.94;5091653;28;20227;-60
2022/03/02 02:07:23;;;;;;;22.37;15.97;;;0.50;99.90;;;1.32;98.84;-19771.78;5091382;28;20219;-59
2022/03/02 02:09:52;;;;;;;20.27;15.50;;;0.60;99.90;;;1.14;99.64;-19765.63;5092423;28;20237;-59
2022/03/02 02:12:20;;;;;;;19.83;15.57;;;0.50;99.90;;;1.18;99.09;-19767.00;5090967;28;20328;-57
2022/03/02 02:14:48;;;;;;;19.93;15.10;;;0.50;99.90;;;1.28;98.92;-19770.41;5091480;28;20226;-57
2022/03/02 02:17:18;;;;;;;22.77;16.30;;;0.50;99.90;;;1.10;99.42;-19764.44;5090961;28;20310;-57
2022/03/02 02:19:46;;;;;;;21.33;15.80;;;0.50;99.90;;;1.22;99.01;-19768.38;5091092;28;20236;-57
2022/03/02 02:22:16;;;;;;;23.53;16.07;;;0.50;99.90;;;1.22;99.20;-19768.53;5090853;28;20648;-57
2022/03/02 02:24:44;;;;;;;20.17;15.90;;;0.50;99.90;;;1.26;98.86;-19769.75;5091809;28;20200;-55
2022/03/02 02:27:13;;;;;;;20.33;15.40;;;0.50;99.90;;;1.44;97.79;-19775.88;5090757;28;20310;-56
2022/03/02 02:29:43;;;;;;;20.73;15.63;;;0.60;99.90;;;1.22;98.88;-19768.53;5091022;28;20223;-57
2022/03/02 02:32:11;;;;;;;22.77;16.17;;;0.60;99.90;;;1.16;99.79;-19766.31;5090871;28;20235;-58
2022/03/02 02:34:40;;;;;;;25.40;16.30;;;0.50;99.90;;;1.29;99.51;-19770.59;5090927;28;20699;-55
2022/03/02 02:37:09;;;;;;;22.73;16.33;;;0.50;99.90;;;1.22;99.23;-19768.53;5090537;28;20295;-55
2022/03/02 02:39:39;;;;;;;20.97;15.53;;;0.50;99.90;;;1.22;99.38;-19768.38;5091651;28;20291;-58
2022/03/02 02:42:10;;;;;;;20.07;15.33;;;0.50;99.90;;;1.04;99.97;-19762.38;5090817;28;20316;-56
2022/03/02 02:44:38;;;;;;;20.60;15.07;;;0.40;99.90;;;0.97;100.00;-19759.81;5091063;28;20328;-55
2022/03/02 02:47:06;;;;;;;20.40;15.53;;;0.40;99.90;;;0.90;100.00;-19757.44;5097356;28;20227;-57
2022/03/02 02:49:34;;;;;;;21.53;15.87;;;0.30;99.90;;;1.06;100.00;-19762.91;5097710;28;20592;-59
2022/03/02 02:52:02;;;;;;;21.63;16.30;;;0.30;99.90;;;0.98;100.00;-19760.34;5098454;28;20263;-59
2022/03/02 02:54:30;;;;;;;21.37;16.37;;;0.30;99.90;;;1.09;100.00;-19763.94;5098299;28;20256;-55
2022/03/02 02:57:00;;;;;;;21.80;15.97;;;0.30;99.90;;;1.07;100.00;-19763.41;5097329;28;20254;-57
2022/03/02 02:59:28;;;;;;;22.00;15.53;;;0.30;99.90;;;1.15;100.00;-19766.16;5097517;28;20227;-56
2022/03/02 03:01:56;;;;;;;21.37;15.57;;;0.40;99.90;;;0.92;100.00;-19758.13;5097609;28;20219;-59
2022/03/02 03:04:24;;;;;;;19.97;15.10;;;0.30;99.90;;;0.90;100.00;-19757.59;5097840;28;20239;-57
2022/03/02 03:06:52;;;;;;;18.27;15.20;;;0.30;99.90;;;0.94;100.00;-19758.97;5097771;28;20651;-58
2022/03/02 03:09:20;;;;;;;20.77;15.00;;;0.30;99.90;;;1.05;100.00;-19762.56;5097809;28;20555;-58
2022/03/02 03:11:48;;;;;;;20.90;15.20;;;0.30;99.90;;;0.96;100.00;-19759.66;5097512;28;20592;-58
2022/03/02 03:14:18;;;;;;;20.27;15.60;;;0.30;99.90;;;0.99;100.00;-19760.69;5097758;28;20832;-55
2022/03/02 03:16:46;;;;;;;18.30;14.33;;;0.30;99.90;;;0.84;100.00;-19755.56;5097445;28;20237;-58
2022/03/02 03:19:14;;;;;;;20.50;15.83;;;0.30;99.90;;;0.80;100.00;-19754.19;5097454;28;20231;-56
2022/03/02 03:21:42;;;;;;;22.67;15.57;;;0.20;99.90;;;0.91;100.00;-19757.94;5098050;28;20200;-56
2022/03/02 03:24:10;;;;;;;26.23;16.47;;;0.30;99.90;;;1.04;100.00;-19762.38;5097444;28;20309;-57
2022/03/02 03:26:38;;;;;;;22.40;15.73;;;0.30;99.90;;;1.13;100.00;-19765.47;5096972;28;20219;-57
2022/03/02 03:29:06;;;;;;;18.27;15.10;;;0.30;99.90;;;1.15;100.00;-19765.97;5097497;28;20240;-53
2022/03/02 03:31:35;;;;;;;21.43;16.20;;;0.30;99.90;;;1.09;100.00;-19764.09;5097524;28;20579;-57
2022/03/02 03:34:03;;;;;;;19.53;15.57;;;0.30;99.90;;;0.86;100.00;-19756.22;5097902;28;20192;-55
2022/03/02 03:36:31;;;;;;;21.33;15.60;;;0.30;99.90;;;0.98;100.00;-19760.16;5097953;28;20317;-57
2022/03/02 03:38:59;;;;;;;21.33;15.83;;;0.30;99.90;;;1.03;100.00;-19762.03;5097017;28;20230;-58
2022/03/02 03:41:27;;;;;;;23.07;17.43;;;0.30;99.90;;;1.18;100.00;-19767.00;5097202;28;20426;-57
2022/03/02 03:43:55;;;;;;;23.37;16.13;;;0.30;99.90;;;1.00;100.00;-19760.84;5096969;28;20728;-56
2022/03/02 03:46:23;;;;;;;23.47;16.30;;;0.30;99.90;;;1.04;100.00;-19762.38;5097374;28;20205;-56
2022/03/02 03:48:52;;;;;;;20.20;14.50;;;0.30;99.90;;;0.99;100.00;-19760.69;5097632;28;20200;-56
2022/03/02 03:51:21;;;;;;;19.60;15.93;;;0.30;99.90;;;0.82;100.00;-19754.69;5097084;28;20962;-54
2022/03/02 03:53:48;;;;;;;20.87;16.07;;;0.20;99.90;;;0.80;100.00;-19754.00;5097077;28;20226;-55
2022/03/02 03:56:16;;;;;;;22.37;16.00;;;0.20;99.90;;;0.78;100.00;-19753.31;5096638;28;20724;-57
2022/03/02 03:58:44;;;;;;;19.17;15.63;;;0.10;99.90;;;0.81;100.00;-19754.53;5093217;28;20658;-58
2022/03/02 04:01:12;;;;;;;21.23;15.73;;;0.10;99.90;;;0.97;100.00;-19759.81;5093985;28;20255;-58
2022/03/02 04:03:41;;;;;;;20.17;15.53;;;0.20;99.90;;;0.68;100.00;-19749.91;5094513;28;20211;-56
2022/03/02 04:06:10;;;;;;;21.33;15.30;;;0.10;99.90;;;0.65;100.00;-19748.88;5093621;28;20224;-56
2022/03/02 04:08:38;;;;;;;19.17;15.57;;;0.10;99.90;;;0.79;100.00;-19753.66;5093583;28;20228;-57
2022/03/02 04:11:06;;;;;;;22.37;16.03;;;0.10;99.90;;;0.76;100.00;-19752.81;5093713;28;20226;-59
2022/03/02 04:13:34;;;;;;;22.10;15.57;;;0.10;99.90;;;0.61;100.00;-19747.50;5093286;28;20288;-55
2022/03/02 04:16:03;;;;;;;23.93;16.13;;;0.00;99.90;;;0.46;100.00;-19742.38;5094427;28;20296;-56
2022/03/02 04:18:31;;;;;;;21.43;15.70;;;-0.10;99.90;;;0.47;100.00;-19742.72;5093142;28;20288;-57
2022/03/02 04:20:59;;;;;;;22.63;16.60;;;-0.10;99.90;;;0.61;100.00;-19747.69;5093442;28;20315;-57
2022/03/02 04:23:29;;;;;;;21.73;15.50;;;-0.10;99.90;;;0.47;100.00;-19742.72;5092869;28;20216;-57
2022/03/02 04:25:58;;;;;;;22.93;16.40;;;-0.10;99.90;;;0.51;100.00;-19744.09;5093526;28;20344;-58
2022/03/02 04:28:29;;;;;;;20.63;15.73;;;-0.20;99.90;;;0.47;100.00;-19742.72;5093092;28;20224;-56
2022/03/02 04:30:57;;;;;;;21.90;16.47;;;-0.20;99.90;;;0.41;100.00;-19740.66;5093605;28;20187;-55
2022/03/02 04:33:25;;;;;;;20.97;16.13;;;-0.20;99.90;;;0.38;100.00;-19739.66;5092658;28;20796;-59
2022/03/02 04:35:53;;;;;;;23.43;15.97;;;-0.20;99.90;;;0.36;100.00;-19738.97;5093092;28;20744;-58
2022/03/02 04:38:21;;;;;;;20.30;16.03;;;-0.20;99.90;;;0.38;100.00;-19739.81;5092808;28;20277;-55
2022/03/02 04:40:51;;;;;;;21.47;16.50;;;-0.20;99.90;;;0.48;100.00;-19743.25;5092621;28;20303;-54
2022/03/02 04:43:19;;;;;;;19.53;15.97;;;-0.20;99.90;;;0.51;100.00;-19744.25;5092568;28;20287;-55
2022/03/02 04:45:47;;;;;;;23.53;16.40;;;-0.20;99.90;;;0.61;100.00;-19747.50;5093410;28;20686;-58
2022/03/02 04:48:15;;;;;;;20.63;15.87;;;-0.10;99.90;;;0.58;100.00;-19746.66;5092659;28;20245;-55
2022/03/02 04:50:48;;;;;;;21.93;15.97;;;-0.10;99.90;;;0.50;100.00;-19743.75;5092828;28;20224;-56
2022/03/02 04:53:16;;;;;;;22.07;16.60;;;-0.10;99.90;;;0.41;100.00;-19740.66;5092876;28;20227;-57
2022/03/02 04:55:45;;;;;;;25.07;16.07;;;-0.10;99.90;;;0.39;100.00;-19740.00;5093280;28;20311;-57
2022/03/02 04:58:14;;;;;;;21.17;15.50;;;-0.20;99.90;;;0.59;100.00;-19747.00;5092640;28;20286;-54
2022/03/02 05:00:42;;;;;;;22.37;16.67;;;-0.20;99.90;;;0.54;100.00;-19745.28;5093226;28;20683;-57
2022/03/02 05:03:10;;;;;;;22.60;16.40;;;-0.10;99.90;;;0.45;100.00;-19742.22;5092682;28;20306;-57
2022/03/02 05:05:40;;;;;;;23.87;16.27;;;-0.20;99.90;;;0.61;100.00;-19747.50;5092774;28;20723;-59
2022/03/02 05:08:09;;;;;;;23.80;15.87;;;-0.10;99.90;;;0.75;100.00;-19752.28;5092470;28;20310;-54
2022/03/02 05:10:37;;;;;;;20.70;16.80;;;-0.10;99.90;;;0.83;100.00;-19755.19;5092207;28;20309;-57
2022/03/02 05:13:05;;;;;;;22.40;16.10;;;0.00;99.90;;;0.66;100.00;-19749.38;5092560;28;20202;-57
2022/03/02 05:15:35;;;;;;;22.97;15.73;;;-0.10;99.90;;;0.47;100.00;-19742.72;5093064;28;20206;-57
2022/03/02 05:18:03;;;;;;;23.40;16.47;;;-0.10;99.90;;;0.38;100.00;-19739.81;5092301;28;20288;-58
2022/03/02 05:20:31;;;;;;;22.20;16.73;;;-0.20;99.90;;;0.54;100.00;-19745.13;5091832;28;20228;-57
2022/03/02 05:22:59;;;;;;;24.37;15.87;;;-0.20;99.90;;;0.58;100.00;-19746.47;5092325;28;20231;-56
2022/03/02 05:25:27;;;;;;;23.57;16.50;;;-0.20;99.90;;;0.47;100.00;-19742.72;5092347;28;20767;-56
2022/03/02 05:27:55;;;;;;;21.73;15.60;;;-0.20;99.90;;;0.26;100.00;-19735.53;5092883;28;20197;-56
2022/03/02 05:30:23;;;;;;;20.67;15.20;;;-0.30;99.90;;;0.22;100.00;-19734.19;5092033;28;20224;-56
2022/03/02 05:32:52;;;;;;;20.50;15.33;;;-0.30;99.90;;;0.16;100.00;-19732.28;5091985;28;20227;-56
2022/03/02 05:35:20;;;;;;;21.93;16.07;;;-0.40;99.90;;;0.23;100.00;-19734.69;5091701;28;20232;-55
2022/03/02 05:37:48;;;;;;;20.93;16.03;;;-0.40;99.90;;;0.10;100.00;-19730.25;5093025;28;20314;-56
2022/03/02 05:40:19;;;;;;;22.67;15.97;;;-0.40;99.90;;;0.27;100.00;-19735.88;5091839;28;20315;-56
2022/03/02 05:42:55;;;;;;;24.43;16.67;;;-0.40;99.90;;;0.17;100.00;-19732.63;5092462;28;20344;-56
2022/03/02 05:45:23;;;;;;;23.03;15.70;;;-0.50;99.90;;;0.07;100.00;-19729.06;5091814;28;20270;-57
2022/03/02 05:47:52;;;;;;;25.13;16.30;;;-0.50;99.90;;;0.08;100.00;-19729.56;5091631;28;20230;-57
2022/03/02 05:50:20;;;;;;;20.73;16.33;;;-0.50;99.90;;;-0.02;100.00;-19726.16;5091678;28;20315;-58
2022/03/02 05:52:48;;;;;;;22.00;17.37;;;-0.60;99.90;;;0.03;100.00;-19728.03;5091637;28;20753;-57
2022/03/02 05:55:16;;;;;;;24.07;15.87;;;-0.60;99.90;;;0.19;100.00;-19733.31;5091283;28;20729;-58
2022/03/02 05:57:44;;;;;;;22.10;16.27;;;-0.60;99.90;;;0.31;100.00;-19737.25;5092280;28;20200;-56
2022/03/02 06:00:14;;;;;;;23.53;16.13;;;-0.50;99.90;;;0.39;100.00;-19740.16;5091231;28;20909;-56
2022/03/02 06:02:42;;;;;;;23.40;16.47;;;-0.40;99.90;;;0.45;100.00;-19742.03;5091223;28;20263;-57
2022/03/02 06:05:12;;;;;;;21.27;16.80;;;-0.40;99.90;;;0.53;100.00;-19744.78;5091713;28;20274;-57
2022/03/02 06:07:40;;;;;;;22.13;18.23;;;-0.30;99.90;;;0.61;100.00;-19747.69;5091634;28;20224;-58
2022/03/02 06:10:09;;;;;;;25.30;20.23;;;-0.30;99.90;;;0.57;100.00;-19746.31;5091245;28;20196;-56
2022/03/02 06:12:38;;;;;;;21.47;17.97;;;-0.30;99.90;;;0.55;100.00;-19745.63;5091847;28;20209;-55
2022/03/02 06:15:08;;;;;;;23.60;17.93;;;-0.20;99.90;;;0.69;100.00;-19750.41;5090525;28;20219;-56
2022/03/02 06:17:37;;;;;;;26.10;17.23;;;-0.20;99.90;;;0.75;100.00;-19752.28;5091176;28;20228;-59
2022/03/02 06:20:07;;;;;;;20.53;17.30;;;-0.10;99.90;;;0.92;100.00;-19758.13;5090773;28;20230;-58
2022/03/02 06:22:37;;;;;;;22.70;16.77;;;0.00;99.90;;;0.97;100.00;-19759.81;5091527;28;20481;-57
2022/03/02 06:25:08;;;;;;;22.77;18.20;;;0.00;99.90;;;0.93;100.00;-19758.47;5091528;28;20295;-56
2022/03/02 06:27:36;;;;;;;19.90;16.33;;;0.10;99.90;;;0.96;100.00;-19759.66;5091690;28;20212;-57
2022/03/02 06:30:06;;;;;;;24.40;17.97;;;0.10;99.90;;;1.00;100.00;-19760.84;5090894;28;20235;-58
2022/03/02 06:32:35;;;;;;;25.60;20.67;;;0.20;99.90;;;1.05;100.00;-19762.56;5091047;28;20299;-58
2022/03/02 06:35:05;;;;;;;22.30;18.93;;;0.30;99.90;;;1.08;100.00;-19763.75;5090750;28;20255;-58
2022/03/02 06:37:33;;;;;;;25.33;20.23;;;0.30;99.90;;;1.31;100.00;-19771.28;5091154;28;20224;-58
2022/03/02 06:40:08;;;;;;;23.60;18.23;;;0.50;99.90;;;1.52;100.00;-19778.63;5091722;28;20232;-57
2022/03/02 06:42:57;;;;;;;24.67;17.43;;;0.60;99.90;;;1.92;100.00;-19792.13;5090829;28;20311;-57
2022/03/02 06:45:35;;;;;;;23.97;17.20;;;0.80;99.90;;;1.93;100.00;-19792.66;5091173;28;20247;-58
2022/03/02 06:48:11;;;;;;;21.63;16.13;;;1.00;99.90;;;1.97;100.00;-19794.00;5090833;28;20308;-59
2022/03/02 06:50:45;;;;;;;21.43;15.97;;;1.10;99.90;;;2.03;100.00;-19796.06;5090811;28;20592;-59
2022/03/02 06:53:15;;;;;;;21.30;15.27;;;1.20;99.90;;;2.06;100.00;-19797.09;5090893;28;20635;-60
2022/03/02 06:55:47;;;;;;;22.60;16.33;;;1.30;99.90;;;2.14;98.90;-19799.81;5090675;28;20227;-59
2022/03/02 06:58:17;;;;;;;20.20;16.27;;;1.30;99.90;;;2.20;96.63;-19801.88;5090969;28;20199;-57
2022/03/02 07:00:54;;;;;;;19.93;16.67;;;1.40;99.90;;;2.22;97.43;-19802.56;5091061;28;20188;-58
2022/03/02 07:03:28;;;;;;;22.47;16.90;;;1.40;99.90;;;2.23;97.69;-19802.72;5090622;28;20602;-54
2022/03/02 07:05:56;;;;;;;20.57;16.40;;;1.50;99.90;;;2.25;98.01;-19803.59;5090688;28;20333;-58
2022/03/02 07:08:25;;;;;;;23.40;16.63;;;1.50;99.90;;;2.34;97.27;-19806.50;5090670;28;20311;-59
2022/03/02 07:10:55;;;;;;;20.93;17.07;;;1.50;99.90;;;2.36;97.13;-19807.34;5090076;28;20230;-58
2022/03/02 07:13:24;;;;;;;26.90;18.80;;;1.60;99.90;;;2.37;96.03;-19807.69;5090573;28;20231;-61
2022/03/02 07:15:52;;;;;;;25.40;18.77;;;1.60;99.90;;;2.45;93.83;-19810.25;5091114;28;20230;-61
2022/03/02 07:18:20;;;;;;;24.00;18.43;;;1.60;99.90;;;2.24;95.96;-19803.25;5090198;28;20279;-58
2022/03/02 07:20:51;;;;;;;28.83;20.17;;;1.60;99.90;;;2.23;96.59;-19802.91;5090061;28;20233;-58
2022/03/02 07:23:21;;;;;;;23.70;18.37;;;1.50;99.90;;;2.23;97.12;-19802.72;5090409;28;20229;-57
2022/03/02 07:25:54;;;;;;;24.50;18.17;;;1.50;99.90;;;2.39;96.25;-19808.38;5090207;28;20223;-61
2022/03/02 07:28:24;;;;;;;25.43;17.87;;;1.50;99.90;;;2.50;95.13;-19811.97;5088680;28;20216;-59
2022/03/02 07:30:57;;;;;;;23.60;17.33;;;1.60;99.90;;;2.50;94.11;-19811.97;5101714;28;20303;-58
2022/03/02 07:33:27;;;;;;;22.53;16.83;;;1.70;99.90;;;2.66;93.11;-19817.25;5111852;28;20289;-59
2022/03/02 07:35:58;;;;;;;23.90;18.07;;;1.70;99.90;;;2.84;92.14;-19823.41;5094100;28;20238;-57
2022/03/02 07:38:27;;;;;;;25.87;16.97;;;1.80;99.90;;;2.78;92.15;-19821.53;5093873;28;20230;-60
2022/03/02 07:40:55;;;;;;;23.40;17.37;;;1.90;99.90;;;2.87;92.43;-19824.63;5093886;28;20218;-60
2022/03/02 07:43:24;;;;;;;25.00;17.10;;;1.90;99.90;;;3.01;91.73;-19829.22;5093654;28;20233;-61
2022/03/02 07:45:52;;;;;;;22.27;17.50;;;2.00;99.90;;;3.21;90.07;-19836.25;5094407;28;20298;-60
2022/03/02 07:48:20;;;;;;;22.20;16.73;;;2.20;99.90;;;3.33;88.12;-19840.34;5093525;28;20306;-58
2022/03/02 07:50:50;;;;;;;22.90;15.37;;;2.30;99.90;;;3.40;87.46;-19842.56;5093987;28;20660;-61
2022/03/02 07:53:27;;;;;;;21.73;16.10;;;2.40;99.90;;;3.45;85.40;-19844.44;5093495;28;20224;-60
2022/03/02 07:55:55;;;;;;;21.30;15.70;;;2.50;99.90;;;3.50;85.23;-19846.00;5093876;28;20226;-56
2022/03/02 07:58:25;;;;;;;25.53;17.60;;;2.60;99.90;;;3.67;84.16;-19851.97;5093429;28;20197;-56
2022/03/02 08:00:55;;;;;;;20.47;15.73;;;2.70;99.90;;;3.71;84.41;-19853.16;5094363;28;20191;-57
2022/03/02 08:03:28;;;;;;;20.80;16.40;;;2.80;99.90;;;3.81;84.42;-19856.41;5093223;28;20244;-58
2022/03/02 08:06:00;;;;;;;23.00;16.40;;;2.80;99.90;;;3.99;81.53;-19862.72;5093362;28;20217;-59
2022/03/02 08:08:29;;;;;;;22.43;17.20;;;3.00;99.90;;;4.15;80.81;-19868.22;5093212;28;20220;-57
2022/03/02 08:10:58;;;;;;;26.07;16.93;;;3.10;99.90;;;4.22;80.31;-19870.44;5093654;28;20711;-58
2022/03/02 08:13:30;;;;;;;24.70;16.83;;;3.20;99.90;;;4.43;79.54;-19877.78;5093468;28;20219;-61
2022/03/02 08:15:59;;;;;;;24.83;17.10;;;3.30;99.90;;;4.56;78.93;-19882.22;5094266;28;20228;-64
2022/03/02 08:18:27;;;;;;;25.23;17.30;;;3.40;99.90;;;4.60;77.47;-19883.41;5093340;28;20238;-64
2022/03/02 08:20:58;;;;;;;24.53;16.97;;;3.50;99.90;;;4.79;76.76;-19889.91;5093352;28;20234;-64
2022/03/02 08:23:34;;;;;;;24.50;16.73;;;3.60;99.90;;;4.95;75.67;-19895.38;5093053;28;20316;-62
2022/03/02 08:26:04;;;;;;;21.57;16.10;;;3.80;99.90;;;5.07;74.82;-19899.31;5093642;28;20243;-59
2022/03/02 08:28:36;;;;;;;22.17;15.80;;;3.90;99.90;;;5.17;73.79;-19902.91;5093138;28;20216;-55
2022/03/02 08:31:05;;;;;;;21.20;15.73;;;3.90;99.90;;;5.31;71.52;-19907.53;5093956;28;20280;-57
2022/03/02 08:33:37;;;;;;;24.70;17.03;;;4.10;99.90;;;5.35;72.24;-19908.88;5092990;28;20271;-57
2022/03/02 08:36:06;;;;;;;20.37;16.80;;;4.10;99.90;;;5.49;72.44;-19913.84;5093159;28;20319;-55
2022/03/02 08:38:40;;;;;;;21.07;17.03;;;4.30;99.90;;;5.70;72.14;-19920.84;5092518;28;20702;-55
2022/03/02 08:41:10;;;;;;;21.53;16.33;;;4.40;99.90;;;5.88;70.97;-19927.00;5093000;28;20332;-60
2022/03/02 08:43:39;;;;;;;21.17;15.97;;;4.50;99.90;;;6.04;69.48;-19932.47;5092308;28;20314;-60
2022/03/02 08:46:07;;;;;;;24.43;17.47;;;4.70;99.90;;;6.09;68.54;-19934.19;5093072;28;20228;-56
2022/03/02 08:48:35;;;;;;;19.13;16.13;;;4.80;99.90;;;6.16;68.29;-19936.56;5092782;28;20233;-50
2022/03/02 08:51:05;;;;;;;23.37;16.60;;;4.90;99.90;;;6.36;68.08;-19943.41;5092619;28;20318;-53
2022/03/02 08:53:34;;;;;;;20.50;16.57;;;5.00;99.90;;;6.42;64.62;-19945.28;5092444;28;20261;-59
2022/03/02 08:56:05;;;;;;;18.33;14.37;;;5.00;99.90;;;6.55;62.38;-19949.91;5092798;28;20693;-59
2022/03/02 08:58:33;;;;;;;19.60;14.67;;;5.10;99.90;;;6.75;62.93;-19956.56;5092410;28;20266;-60
2022/03/02 09:01:03;;;;;;;20.17;14.80;;;5.20;99.90;;;6.84;62.35;-19959.81;5093145;28;20286;-61
2022/03/02 09:03:35;;;;;;;20.53;14.83;;;5.40;99.90;;;6.63;62.89;-19952.63;5092289;28;20226;-59
2022/03/02 09:06:04;;;;;;;19.07;15.10;;;5.40;99.90;;;6.73;61.35;-19955.88;5092713;28;20234;-59
2022/03/02 09:08:38;;;;;;;17.77;14.20;;;5.30;99.90;;;6.54;60.53;-19949.56;5092407;28;20535;-58
2022/03/02 09:11:07;;;;;;;17.00;14.00;;;5.30;99.90;;;6.68;60.46;-19954.34;5092292;28;20232;-60
2022/03/02 09:13:37;;;;;;;18.17;13.83;;;5.30;99.90;;;6.77;60.10;-19957.25;5092139;28;20222;-62
2022/03/02 09:16:10;;;;;;;16.77;14.00;;;5.40;99.90;;;6.91;59.97;-19962.22;5092835;28;20214;-63
2022/03/02 09:18:38;;;;;;;18.20;13.50;;;5.60;99.90;;;6.99;58.58;-19964.94;5092635;28;20598;-63
2022/03/02 09:21:08;;;;;;;18.43;13.70;;;5.70;99.90;;;6.99;57.06;-19964.78;5092093;28;20637;-67
2022/03/02 09:23:41;;;;;;;18.53;13.10;;;5.70;99.90;;;7.16;56.04;-19970.59;5091728;28;20252;-64
2022/03/02 09:26:12;;;;;;;15.70;13.63;;;5.80;99.90;;;7.03;56.91;-19966.16;5092227;28;20228;-65
2022/03/02 09:28:43;;;;;;;19.30;14.13;;;5.80;99.90;;;7.04;57.17;-19966.66;5092056;28;20231;-64
2022/03/02 09:31:16;;;;;;;15.73;13.57;;;5.80;99.90;;;7.11;55.88;-19968.88;5091667;28;20209;-65
2022/03/02 09:33:49;;;;;;;16.53;13.47;;;5.80;99.90;;;7.14;56.44;-19969.91;5092101;28;20183;-60
2022/03/02 09:36:22;;;;;;;19.27;14.17;;;5.90;99.90;;;7.26;55.07;-19974.19;5092023;28;20645;-61
2022/03/02 09:38:52;;;;;;;18.57;13.83;;;5.90;99.90;;;7.15;55.95;-19970.41;5091620;28;20303;-61
2022/03/02 09:41:30;;;;;;;16.40;13.83;;;5.80;99.90;;;7.24;55.56;-19973.50;5091695;28;20315;-61
2022/03/02 09:44:00;;;;;;;19.13;14.60;;;5.90;99.90;;;7.30;55.17;-19975.38;5091587;28;20264;-61
2022/03/02 09:46:36;;;;;;;17.30;14.10;;;6.00;99.90;;;7.49;55.43;-19981.88;5091749;28;20245;-60
2022/03/02 09:49:07;;;;;;;19.13;14.03;;;6.10;99.90;;;7.49;55.49;-19981.88;5091502;28;20207;-62
2022/03/02 09:51:38;;;;;;;20.77;14.73;;;6.20;99.90;;;7.28;55.12;-19974.84;5091983;28;20658;-61
2022/03/02 09:54:09;;;;;;;16.83;13.43;;;6.10;99.90;;;7.13;55.33;-19969.72;5091282;28;20227;-60
2022/03/02 09:56:38;;;;;;;17.50;12.33;;;6.10;99.90;;;7.25;54.79;-19973.84;5091002;28;20304;-60
2022/03/02 09:59:09;;;;;;;16.77;13.00;;;6.10;99.90;;;7.25;55.23;-19973.66;5091512;28;20265;-59
2022/03/02 10:01:41;;;;;;;19.47;12.63;;;6.10;99.90;;;7.33;54.39;-19976.56;5091341;28;20222;-60
2022/03/02 10:04:17;;;;;;;14.80;12.40;;;6.20;99.90;;;7.35;53.95;-19977.25;5091194;28;20207;-56
2022/03/02 10:06:46;;;;;;;16.53;13.13;;;6.20;99.90;;;7.32;54.50;-19976.22;5092186;28;20190;-59
2022/03/02 10:09:20;;;;;;;17.77;12.90;;;6.20;99.90;;;7.26;55.34;-19974.00;5090725;28;20220;-60
2022/03/02 10:11:50;;;;;;;17.87;13.07;;;6.20;99.90;;;7.31;54.12;-19975.88;5091092;28;20231;-58
2022/03/02 10:14:20;;;;;;;16.10;12.67;;;6.20;99.90;;;7.22;53.97;-19972.63;5091018;28;20228;-58
2022/03/02 10:17:00;;;;;;;15.73;12.73;;;6.10;99.90;;;7.17;54.00;-19971.09;5091554;28;20226;-58